createdAt,value
2022-11-20T00:00:21.347Z,1009.81
2022-11-20T00:01:21.347Z,1009.85
2022-11-20T00:02:21.410Z,1009.82
2022-11-20T00:03:21.297Z,1009.81
2022-11-20T00:04:21.288Z,1009.79
2022-11-20T00:05:21.278Z,1009.78
2022-11-20T00:06:21.287Z,1009.75
2022-11-20T00:07:21.345Z,1009.75
2022-11-20T00:08:21.240Z,1009.76
2022-11-20T00:09:21.422Z,1009.76
2022-11-20T00:10:21.208Z,1009.74
2022-11-20T00:11:21.209Z,1009.74
2022-11-20T00:12:21.187Z,1009.75
2022-11-20T00:13:21.170Z,1009.75
2022-11-20T00:14:21.157Z,1009.75
2022-11-20T00:15:21.139Z,1009.78
2022-11-20T00:16:21.149Z,1009.76
2022-11-20T00:17:21.120Z,1009.74
2022-11-20T00:18:21.106Z,1009.76
2022-11-20T00:19:21.300Z,1009.77
2022-11-20T00:20:21.088Z,1009.75
2022-11-20T00:21:22.182Z,1009.79
2022-11-20T00:22:21.058Z,1009.78
2022-11-20T00:23:21.043Z,1009.77
2022-11-20T00:24:21.026Z,1009.75
2022-11-20T00:25:21.015Z,1009.73
2022-11-20T00:26:21.000Z,1009.74
2022-11-20T00:27:21.008Z,1009.78
2022-11-20T00:28:20.977Z,1009.74
2022-11-20T00:29:21.216Z,1009.76
2022-11-20T00:30:20.950Z,1009.78
2022-11-20T00:31:20.933Z,1009.83
2022-11-20T00:32:21.151Z,1009.79
2022-11-20T00:33:20.898Z,1009.77
2022-11-20T00:34:20.907Z,1009.82
2022-11-20T00:35:20.878Z,1009.75
2022-11-20T00:36:20.869Z,1009.75
2022-11-20T00:37:20.866Z,1009.81
2022-11-20T00:38:20.840Z,1009.75
2022-11-20T00:39:20.971Z,1009.75
2022-11-20T00:40:20.828Z,1009.72
2022-11-20T00:41:20.798Z,1009.71
2022-11-20T00:42:20.809Z,1009.72
2022-11-20T00:43:20.770Z,1009.67
2022-11-20T00:44:20.768Z,1009.69
2022-11-20T00:45:20.750Z,1009.71
2022-11-20T00:46:20.755Z,1009.67
2022-11-20T00:47:20.718Z,1009.70
2022-11-20T00:48:20.716Z,1009.67
2022-11-20T00:49:20.981Z,1009.66
2022-11-20T00:50:20.705Z,1009.64
2022-11-20T00:51:20.686Z,1009.67
2022-11-20T00:52:20.660Z,1009.64
2022-11-20T00:53:20.641Z,1009.65
2022-11-20T00:54:20.633Z,1009.65
2022-11-20T00:55:20.620Z,1009.68
2022-11-20T00:56:20.628Z,1009.65
2022-11-20T00:57:20.595Z,1009.65
2022-11-20T00:58:20.590Z,1009.65
2022-11-20T00:59:20.654Z,1009.64
2022-11-20T01:00:20.550Z,1009.68
2022-11-20T01:01:20.587Z,1009.69
2022-11-20T01:02:20.540Z,1009.68
2022-11-20T01:03:25.564Z,1009.69
2022-11-20T01:04:21.503Z,1009.67
2022-11-20T01:05:20.489Z,1009.64
2022-11-20T01:06:20.491Z,1009.70
2022-11-20T01:07:20.479Z,1009.63
2022-11-20T01:08:20.449Z,1009.61
2022-11-20T01:09:20.940Z,1009.58
2022-11-20T01:10:20.423Z,1009.54
2022-11-20T01:11:20.427Z,1009.56
2022-11-20T01:12:20.401Z,1009.58
2022-11-20T01:13:25.473Z,1009.56
2022-11-20T01:14:21.382Z,1009.57
2022-11-20T01:15:20.350Z,1009.56
2022-11-20T01:16:20.361Z,1009.58
2022-11-20T01:17:20.331Z,1009.56
2022-11-20T01:18:20.318Z,1009.53
2022-11-20T01:19:20.649Z,1009.57
2022-11-20T01:20:20.290Z,1009.57
2022-11-20T01:21:20.301Z,1009.53
2022-11-20T01:22:20.275Z,1009.50
2022-11-20T01:23:20.257Z,1009.49
2022-11-20T01:24:20.243Z,1009.50
2022-11-20T01:25:20.229Z,1009.53
2022-11-20T01:26:20.232Z,1009.56
2022-11-20T01:27:20.192Z,1009.59
2022-11-20T01:28:20.191Z,1009.66
2022-11-20T01:29:20.468Z,1009.64
2022-11-20T01:30:20.164Z,1009.59
2022-11-20T01:31:20.159Z,1009.61
2022-11-20T01:32:20.140Z,1009.61
2022-11-20T01:33:20.111Z,1009.61
2022-11-20T01:34:20.121Z,1009.61
2022-11-20T01:35:20.090Z,1009.62
2022-11-20T01:36:20.100Z,1009.60
2022-11-20T01:37:20.078Z,1009.57
2022-11-20T01:38:20.060Z,1009.49
2022-11-20T01:39:20.384Z,1009.48
2022-11-20T01:40:20.039Z,1009.49
2022-11-20T01:41:20.038Z,1009.51
2022-11-20T01:42:20.013Z,1009.49
2022-11-20T01:43:19.994Z,1009.50
2022-11-20T01:44:19.982Z,1009.48
2022-11-20T01:45:19.958Z,1009.51
2022-11-20T01:46:19.951Z,1009.49
2022-11-20T01:47:19.970Z,1009.49
2022-11-20T01:48:19.935Z,1009.43
2022-11-20T01:49:20.216Z,1009.48
2022-11-20T01:50:19.901Z,1009.50
2022-11-20T01:51:19.883Z,1009.48
2022-11-20T01:52:19.900Z,1009.51
2022-11-20T01:53:19.860Z,1009.48
2022-11-20T01:54:19.858Z,1009.43
2022-11-20T01:55:19.831Z,1009.41
2022-11-20T01:56:19.840Z,1009.40
2022-11-20T01:57:19.805Z,1009.40
2022-11-20T01:58:19.803Z,1009.41
2022-11-20T01:59:20.048Z,1009.46
2022-11-20T02:00:19.766Z,1009.40
2022-11-20T02:01:19.832Z,1009.40
2022-11-20T02:02:19.743Z,1009.40
2022-11-20T02:03:19.732Z,1009.41
2022-11-20T02:04:19.714Z,1009.34
2022-11-20T02:05:19.692Z,1009.35
2022-11-20T02:06:19.714Z,1009.38
2022-11-20T02:07:19.721Z,1009.34
2022-11-20T02:08:19.672Z,1009.31
2022-11-20T02:09:19.957Z,1009.30
2022-11-20T02:10:19.642Z,1009.29
2022-11-20T02:11:19.634Z,1009.33
2022-11-20T02:12:19.612Z,1009.33
2022-11-20T02:13:19.591Z,1009.27
2022-11-20T02:14:19.595Z,1009.26
2022-11-20T02:15:19.574Z,1009.27
2022-11-20T02:16:19.577Z,1009.22
2022-11-20T02:17:19.543Z,1009.25
2022-11-20T02:18:19.543Z,1009.21
2022-11-20T02:19:19.771Z,1009.16
2022-11-20T02:20:19.515Z,1009.14
2022-11-20T02:21:19.503Z,1009.12
2022-11-20T02:22:19.480Z,1009.11
2022-11-20T02:23:19.464Z,1009.12
2022-11-20T02:24:19.467Z,1009.10
2022-11-20T02:25:19.440Z,1009.12
2022-11-20T02:26:19.442Z,1009.09
2022-11-20T02:27:19.414Z,1009.09
2022-11-20T02:28:19.421Z,1009.10
2022-11-20T02:29:19.738Z,1009.06
2022-11-20T02:30:19.380Z,1009.01
2022-11-20T02:31:19.383Z,1009.07
2022-11-20T02:32:19.352Z,1009.02
2022-11-20T02:33:19.347Z,1009.02
2022-11-20T02:34:19.324Z,1009.08
2022-11-20T02:35:19.303Z,1009.05
2022-11-20T02:36:19.306Z,1009.13
2022-11-20T02:37:19.306Z,1009.12
2022-11-20T02:38:19.274Z,1009.13
2022-11-20T02:39:19.480Z,1009.14
2022-11-20T02:40:19.245Z,1009.15
2022-11-20T02:41:19.236Z,1009.19
2022-11-20T02:42:19.235Z,1009.13
2022-11-20T02:43:19.202Z,1009.12
2022-11-20T02:44:19.193Z,1009.12
2022-11-20T02:45:19.173Z,1009.07
2022-11-20T02:46:19.173Z,1009.08
2022-11-20T02:47:19.171Z,1009.06
2022-11-20T02:48:19.151Z,1009.06
2022-11-20T02:49:19.500Z,1009.09
2022-11-20T02:50:19.120Z,1009.02
2022-11-20T02:51:19.103Z,1009.04
2022-11-20T02:52:19.103Z,1009.06
2022-11-20T02:53:19.075Z,1009.02
2022-11-20T02:54:19.063Z,1009.02
2022-11-20T02:55:19.044Z,1009.08
2022-11-20T02:56:19.035Z,1009.05
2022-11-20T02:57:19.038Z,1009.10
2022-11-20T02:58:19.014Z,1009.10
2022-11-20T02:59:19.207Z,1009.07
2022-11-20T03:00:18.995Z,1009.06
2022-11-20T03:01:19.024Z,1009.10
2022-11-20T03:02:26.722Z,1009.13
2022-11-20T03:03:18.944Z,1009.14
2022-11-20T03:04:18.931Z,1009.06
2022-11-20T03:05:18.912Z,1009.11
2022-11-20T03:06:18.911Z,1009.05
2022-11-20T03:07:18.929Z,1009.07
2022-11-20T03:08:18.881Z,1009.08
2022-11-20T03:09:19.111Z,1009.05
2022-11-20T03:10:18.851Z,1009.03
2022-11-20T03:11:18.839Z,1009.05
2022-11-20T03:12:18.848Z,1009.04
2022-11-20T03:13:18.812Z,1009.04
2022-11-20T03:14:18.804Z,1009.04
2022-11-20T03:15:18.782Z,1009.05
2022-11-20T03:16:18.774Z,1009.04
2022-11-20T03:17:18.781Z,1009.04
2022-11-20T03:18:18.755Z,1009.01
2022-11-20T03:19:19.045Z,1009.01
2022-11-20T03:20:18.723Z,1009.06
2022-11-20T03:21:18.712Z,1009.04
2022-11-20T03:22:18.712Z,1009.04
2022-11-20T03:23:18.680Z,1009.08
2022-11-20T03:24:18.673Z,1009.06
2022-11-20T03:25:18.652Z,1009.02
2022-11-20T03:26:18.644Z,1008.99
2022-11-20T03:27:18.642Z,1009.01
2022-11-20T03:28:18.622Z,1008.97
2022-11-20T03:29:18.899Z,1009.01
2022-11-20T03:30:18.592Z,1009.04
2022-11-20T03:31:18.581Z,1008.99
2022-11-20T03:32:18.585Z,1008.99
2022-11-20T03:33:18.549Z,1009.00
2022-11-20T03:34:18.543Z,1009.06
2022-11-20T03:35:18.523Z,1009.06
2022-11-20T03:36:18.526Z,1009.10
2022-11-20T03:37:18.512Z,1009.10
2022-11-20T03:38:18.492Z,1009.02
2022-11-20T03:39:18.630Z,1009.02
2022-11-20T03:40:18.464Z,1009.01
2022-11-20T03:41:18.447Z,1008.97
2022-11-20T03:42:18.451Z,1008.93
2022-11-20T03:43:18.412Z,1008.94
2022-11-20T03:44:18.403Z,1008.87
2022-11-20T03:45:18.394Z,1008.94
2022-11-20T03:46:18.383Z,1008.93
2022-11-20T03:47:18.373Z,1009.01
2022-11-20T03:48:18.355Z,1009.00
2022-11-20T03:49:18.473Z,1009.01
2022-11-20T03:50:18.324Z,1008.95
2022-11-20T03:51:18.312Z,1008.95
2022-11-20T03:52:18.315Z,1008.96
2022-11-20T03:53:18.283Z,1008.91
2022-11-20T03:54:18.263Z,1008.99
2022-11-20T03:55:18.262Z,1008.99
2022-11-20T03:56:18.241Z,1009.00
2022-11-20T03:57:18.253Z,1008.99
2022-11-20T03:58:18.221Z,1009.04
2022-11-20T03:59:18.296Z,1009.01
2022-11-20T04:00:18.182Z,1009.05
2022-11-20T04:01:18.239Z,1009.06
2022-11-20T04:02:18.265Z,1009.01
2022-11-20T04:03:18.195Z,1009.03
2022-11-20T04:04:18.132Z,1009.03
2022-11-20T04:05:18.123Z,1009.00
2022-11-20T04:06:18.110Z,1008.99
2022-11-20T04:07:18.220Z,1009.02
2022-11-20T04:08:18.093Z,1009.01
2022-11-20T04:09:18.223Z,1009.00
2022-11-20T04:10:18.054Z,1008.97
2022-11-20T04:11:18.053Z,1008.98
2022-11-20T04:12:18.049Z,1008.92
2022-11-20T04:13:18.040Z,1008.91
2022-11-20T04:14:18.001Z,1008.93
2022-11-20T04:15:17.992Z,1008.86
2022-11-20T04:16:17.972Z,1008.88
2022-11-20T04:17:17.996Z,1008.95
2022-11-20T04:18:18.003Z,1008.94
2022-11-20T04:19:18.051Z,1008.98
2022-11-20T04:20:17.922Z,1008.95
2022-11-20T04:21:17.912Z,1009.00
2022-11-20T04:22:17.913Z,1008.96
2022-11-20T04:23:17.891Z,1008.98
2022-11-20T04:24:17.882Z,1009.04
2022-11-20T04:25:17.862Z,1009.07
2022-11-20T04:26:17.845Z,1009.00
2022-11-20T04:27:17.855Z,1008.99
2022-11-20T04:28:17.813Z,1008.96
2022-11-20T04:29:17.947Z,1008.97
2022-11-20T04:30:17.793Z,1008.96
2022-11-20T04:31:17.800Z,1009.01
2022-11-20T04:32:17.763Z,1008.95
2022-11-20T04:33:17.846Z,1008.91
2022-11-20T04:34:17.735Z,1008.95
2022-11-20T04:35:17.744Z,1008.91
2022-11-20T04:36:17.744Z,1008.91
2022-11-20T04:37:17.705Z,1008.94
2022-11-20T04:38:17.785Z,1008.95
2022-11-20T04:39:17.672Z,1008.97
2022-11-20T04:40:17.653Z,1008.92
2022-11-20T04:41:17.664Z,1008.93
2022-11-20T04:42:17.633Z,1008.99
2022-11-20T04:43:17.698Z,1009.03
2022-11-20T04:44:17.614Z,1008.99
2022-11-20T04:45:17.597Z,1008.98
2022-11-20T04:46:17.592Z,1008.97
2022-11-20T04:47:17.573Z,1008.98
2022-11-20T04:48:17.543Z,1008.97
2022-11-20T04:49:17.584Z,1008.97
2022-11-20T04:50:17.523Z,1008.98
2022-11-20T04:51:17.531Z,1008.94
2022-11-20T04:52:17.493Z,1008.97
2022-11-20T04:53:17.584Z,1008.89
2022-11-20T04:54:17.464Z,1008.95
2022-11-20T04:55:17.471Z,1008.92
2022-11-20T04:56:17.464Z,1008.96
2022-11-20T04:57:17.433Z,1008.98
2022-11-20T04:58:17.417Z,1008.95
2022-11-20T04:59:17.414Z,1008.90
2022-11-20T05:00:17.394Z,1008.93
2022-11-20T05:01:17.419Z,1008.98
2022-11-20T05:02:17.363Z,1008.97
2022-11-20T05:03:17.355Z,1008.96
2022-11-20T05:04:17.334Z,1008.95
2022-11-20T05:05:17.325Z,1008.91
2022-11-20T05:06:17.323Z,1008.90
2022-11-20T05:07:17.347Z,1008.90
2022-11-20T05:08:17.284Z,1008.92
2022-11-20T05:09:17.272Z,1008.89
2022-11-20T05:10:17.253Z,1008.91
2022-11-20T05:11:17.267Z,1008.98
2022-11-20T05:12:17.236Z,1008.96
2022-11-20T05:13:17.224Z,1008.99
2022-11-20T05:14:17.204Z,1008.96
2022-11-20T05:15:17.196Z,1008.96
2022-11-20T05:16:17.193Z,1008.91
2022-11-20T05:17:17.165Z,1008.94
2022-11-20T05:18:17.143Z,1008.97
2022-11-20T05:19:17.285Z,1008.99
2022-11-20T05:20:17.124Z,1008.94
2022-11-20T05:21:17.123Z,1008.95
2022-11-20T05:22:17.102Z,1008.95
2022-11-20T05:23:17.093Z,1008.95
2022-11-20T05:24:17.075Z,1008.99
2022-11-20T05:25:17.054Z,1008.94
2022-11-20T05:26:17.063Z,1008.93
2022-11-20T05:27:17.044Z,1008.98
2022-11-20T05:28:17.020Z,1008.92
2022-11-20T05:29:17.010Z,1008.95
2022-11-20T05:30:16.993Z,1008.95
2022-11-20T05:31:20.676Z,1008.93
2022-11-20T05:32:17.965Z,1008.87
2022-11-20T05:33:16.954Z,1008.91
2022-11-20T05:34:16.943Z,1008.91
2022-11-20T05:35:16.923Z,1008.89
2022-11-20T05:36:16.924Z,1008.87
2022-11-20T05:37:16.904Z,1008.88
2022-11-20T05:38:16.911Z,1008.88
2022-11-20T05:39:16.873Z,1008.89
2022-11-20T05:40:16.854Z,1008.93
2022-11-20T05:41:16.844Z,1008.91
2022-11-20T05:42:16.853Z,1008.88
2022-11-20T05:43:16.824Z,1008.88
2022-11-20T05:44:16.810Z,1008.89
2022-11-20T05:45:16.817Z,1008.87
2022-11-20T05:46:16.783Z,1008.89
2022-11-20T05:47:16.795Z,1008.92
2022-11-20T05:48:16.755Z,1008.90
2022-11-20T05:49:16.741Z,1008.88
2022-11-20T05:50:16.725Z,1008.85
2022-11-20T05:51:16.735Z,1008.83
2022-11-20T05:52:16.695Z,1008.80
2022-11-20T05:53:16.682Z,1008.81
2022-11-20T05:54:16.672Z,1008.80
2022-11-20T05:55:16.663Z,1008.80
2022-11-20T05:56:16.655Z,1008.77
2022-11-20T05:57:16.633Z,1008.82
2022-11-20T05:58:16.615Z,1008.82
2022-11-20T05:59:16.605Z,1008.85
2022-11-20T06:00:16.583Z,1008.84
2022-11-20T06:01:16.593Z,1008.81
2022-11-20T06:02:16.585Z,1008.86
2022-11-20T06:03:16.553Z,1008.84
2022-11-20T06:04:16.534Z,1008.83
2022-11-20T06:05:16.525Z,1008.87
2022-11-20T06:06:16.540Z,1008.83
2022-11-20T06:07:16.530Z,1008.82
2022-11-20T06:08:16.484Z,1008.85
2022-11-20T06:09:16.475Z,1008.79
2022-11-20T06:10:16.459Z,1008.74
2022-11-20T06:11:16.463Z,1008.77
2022-11-20T06:12:16.425Z,1008.77
2022-11-20T06:13:16.424Z,1008.80
2022-11-20T06:14:16.404Z,1008.76
2022-11-20T06:15:16.402Z,1008.78
2022-11-20T06:16:16.396Z,1008.77
2022-11-20T06:17:16.363Z,1008.77
2022-11-20T06:18:16.344Z,1008.78
2022-11-20T06:19:16.340Z,1008.73
2022-11-20T06:20:16.343Z,1008.77
2022-11-20T06:21:16.314Z,1008.81
2022-11-20T06:22:16.295Z,1008.82
2022-11-20T06:23:16.294Z,1008.84
2022-11-20T06:24:16.277Z,1008.83
2022-11-20T06:25:16.283Z,1008.82
2022-11-20T06:26:16.246Z,1008.80
2022-11-20T06:27:16.235Z,1008.83
2022-11-20T06:28:16.215Z,1008.80
2022-11-20T06:29:16.211Z,1008.79
2022-11-20T06:30:16.208Z,1008.78
2022-11-20T06:31:16.184Z,1008.80
2022-11-20T06:32:16.162Z,1008.83
2022-11-20T06:33:16.156Z,1008.86
2022-11-20T06:34:16.135Z,1008.84
2022-11-20T06:35:16.184Z,1008.87
2022-11-20T06:36:16.111Z,1008.86
2022-11-20T06:37:16.104Z,1008.86
2022-11-20T06:38:16.085Z,1008.90
2022-11-20T06:39:16.081Z,1008.88
2022-11-20T06:40:16.073Z,1008.93
2022-11-20T06:41:16.051Z,1008.92
2022-11-20T06:42:16.046Z,1008.91
2022-11-20T06:43:16.024Z,1008.92
2022-11-20T06:44:16.015Z,1008.94
2022-11-20T06:45:16.015Z,1008.99
2022-11-20T06:46:15.984Z,1008.97
2022-11-20T06:47:15.975Z,1008.95
2022-11-20T06:48:15.954Z,1008.97
2022-11-20T06:49:15.943Z,1008.92
2022-11-20T06:50:15.944Z,1008.89
2022-11-20T06:51:15.915Z,1008.88
2022-11-20T06:52:15.903Z,1008.86
2022-11-20T06:53:15.895Z,1008.84
2022-11-20T06:54:15.883Z,1008.85
2022-11-20T06:55:15.885Z,1008.84
2022-11-20T06:56:15.843Z,1008.90
2022-11-20T06:57:15.835Z,1008.88
2022-11-20T06:58:15.825Z,1008.91
2022-11-20T06:59:15.826Z,1008.91
2022-11-20T07:00:15.834Z,1008.97
2022-11-20T07:01:15.886Z,1008.96
2022-11-20T07:02:15.764Z,1008.98
2022-11-20T07:03:15.754Z,1009.01
2022-11-20T07:04:15.743Z,1009.07
2022-11-20T07:05:15.754Z,1009.09
2022-11-20T07:06:15.715Z,1009.05
2022-11-20T07:07:15.722Z,1009.09
2022-11-20T07:08:15.686Z,1009.09
2022-11-20T07:09:15.675Z,1009.10
2022-11-20T07:10:15.674Z,1009.10
2022-11-20T07:11:15.689Z,1009.17
2022-11-20T07:12:15.634Z,1009.16
2022-11-20T07:13:15.625Z,1009.19
2022-11-20T07:14:15.604Z,1009.13
2022-11-20T07:15:15.614Z,1009.15
2022-11-20T07:16:15.588Z,1009.15
2022-11-20T07:17:15.575Z,1009.16
2022-11-20T07:18:15.554Z,1009.19
2022-11-20T07:19:15.864Z,1009.14
2022-11-20T07:20:15.545Z,1009.17
2022-11-20T07:21:15.514Z,1009.12
2022-11-20T07:22:15.505Z,1009.13
2022-11-20T07:23:15.494Z,1009.10
2022-11-20T07:24:15.476Z,1009.09
2022-11-20T07:25:15.493Z,1009.09
2022-11-20T07:26:15.446Z,1009.10
2022-11-20T07:27:15.444Z,1009.06
2022-11-20T07:28:15.423Z,1009.05
2022-11-20T07:29:15.415Z,1009.10
2022-11-20T07:30:15.432Z,1009.12
2022-11-20T07:31:19.043Z,1009.12
2022-11-20T07:32:15.375Z,1009.15
2022-11-20T07:33:15.361Z,1009.22
2022-11-20T07:34:15.353Z,1009.19
2022-11-20T07:35:15.358Z,1009.18
2022-11-20T07:36:15.319Z,1009.18
2022-11-20T07:37:15.313Z,1009.12
2022-11-20T07:38:15.287Z,1009.14
2022-11-20T07:39:15.285Z,1009.13
2022-11-20T07:40:15.276Z,1009.14
2022-11-20T07:41:15.255Z,1009.10
2022-11-20T07:42:15.235Z,1009.07
2022-11-20T07:43:15.229Z,1009.08
2022-11-20T07:44:15.217Z,1009.06
2022-11-20T07:45:15.222Z,1009.04
2022-11-20T07:46:15.187Z,1009.01
2022-11-20T07:47:15.175Z,1008.97
2022-11-20T07:48:15.165Z,1009.02
2022-11-20T07:49:15.145Z,1009.02
2022-11-20T07:50:15.149Z,1008.97
2022-11-20T07:51:15.118Z,1009.01
2022-11-20T07:52:15.104Z,1008.93
2022-11-20T07:53:15.094Z,1008.93
2022-11-20T07:54:15.076Z,1008.94
2022-11-20T07:55:15.084Z,1008.94
2022-11-20T07:56:15.056Z,1008.94
2022-11-20T07:57:15.043Z,1008.98
2022-11-20T07:58:15.026Z,1008.98
2022-11-20T07:59:15.034Z,1009.02
2022-11-20T08:00:15.001Z,1009.00
2022-11-20T08:01:15.021Z,1008.93
2022-11-20T08:02:14.967Z,1008.96
2022-11-20T08:03:15.770Z,1008.90
2022-11-20T08:04:14.967Z,1008.91
2022-11-20T08:05:14.935Z,1008.90
2022-11-20T08:06:14.915Z,1008.86
2022-11-20T08:07:14.958Z,1008.84
2022-11-20T08:08:14.896Z,1008.83
2022-11-20T08:09:14.895Z,1008.81
2022-11-20T08:10:14.865Z,1008.82
2022-11-20T08:11:14.865Z,1008.74
2022-11-20T08:12:14.848Z,1008.79
2022-11-20T08:13:14.825Z,1008.73
2022-11-20T08:14:14.849Z,1008.71
2022-11-20T08:15:14.794Z,1008.72
2022-11-20T08:16:14.786Z,1008.75
2022-11-20T08:17:14.768Z,1008.77
2022-11-20T08:18:32.242Z,1008.74
2022-11-20T08:19:15.766Z,1008.75
2022-11-20T08:20:14.735Z,1008.80
2022-11-20T08:21:14.723Z,1008.79
2022-11-20T08:22:14.715Z,1008.79
2022-11-20T08:23:14.696Z,1008.80
2022-11-20T08:24:14.695Z,1008.88
2022-11-20T08:25:14.666Z,1008.88
2022-11-20T08:26:14.656Z,1008.90
2022-11-20T08:27:14.647Z,1008.87
2022-11-20T08:28:20.845Z,1008.90
2022-11-20T08:29:15.626Z,1008.86
2022-11-20T08:30:14.606Z,1008.86
2022-11-20T08:31:14.597Z,1008.84
2022-11-20T08:32:14.585Z,1008.81
2022-11-20T08:33:14.567Z,1008.80
2022-11-20T08:34:18.782Z,1008.73
2022-11-20T08:35:14.538Z,1008.79
2022-11-20T08:36:14.526Z,1008.81
2022-11-20T08:37:14.514Z,1008.83
2022-11-20T08:38:14.498Z,1008.91
2022-11-20T08:39:14.497Z,1008.96
2022-11-20T08:40:19.325Z,1008.94
2022-11-20T08:41:15.457Z,1008.94
2022-11-20T08:42:14.447Z,1008.93
2022-11-20T08:43:14.426Z,1008.92
2022-11-20T08:44:14.438Z,1008.93
2022-11-20T08:45:14.406Z,1008.91
2022-11-20T08:46:14.399Z,1008.91
2022-11-20T08:47:14.378Z,1008.84
2022-11-20T08:48:14.368Z,1008.82
2022-11-20T08:49:14.367Z,1008.78
2022-11-20T08:50:14.344Z,1008.80
2022-11-20T08:51:14.329Z,1008.80
2022-11-20T08:52:14.317Z,1008.81
2022-11-20T08:53:14.298Z,1008.86
2022-11-20T08:54:14.308Z,1008.84
2022-11-20T08:55:14.277Z,1008.89
2022-11-20T08:56:14.267Z,1008.93
2022-11-20T08:57:14.246Z,1008.93
2022-11-20T08:58:14.248Z,1008.95
2022-11-20T08:59:27.392Z,1008.96
2022-11-20T09:00:15.215Z,1008.97
2022-11-20T09:01:14.234Z,1009.00
2022-11-20T09:02:14.187Z,1008.99
2022-11-20T09:04:24.079Z,1008.91
2022-11-20T09:05:23.963Z,1008.90
2022-11-20T09:06:23.955Z,1008.87
2022-11-20T09:07:24.001Z,1008.88
2022-11-20T09:08:23.937Z,1008.81
2022-11-20T09:09:24.154Z,1008.80
2022-11-20T09:10:24.835Z,1008.85
2022-11-20T09:11:24.007Z,1008.80
2022-11-20T09:12:23.874Z,1008.83
2022-11-20T09:13:23.872Z,1008.82
2022-11-20T09:14:23.844Z,1008.81
2022-11-20T09:15:23.836Z,1008.79
2022-11-20T09:16:23.822Z,1008.76
2022-11-20T09:17:23.806Z,1008.75
2022-11-20T09:18:23.815Z,1008.71
2022-11-20T09:19:39.019Z,1008.77
2022-11-20T09:20:24.766Z,1008.70
2022-11-20T09:21:23.836Z,1008.70
2022-11-20T09:22:23.743Z,1008.63
2022-11-20T09:23:23.753Z,1008.63
2022-11-20T09:24:23.714Z,1008.59
2022-11-20T09:25:23.695Z,1008.61
2022-11-20T09:26:23.693Z,1008.59
2022-11-20T09:27:23.676Z,1008.62
2022-11-20T09:28:23.664Z,1008.60
2022-11-20T09:29:23.845Z,1008.57
2022-11-20T09:30:23.636Z,1008.53
2022-11-20T09:31:23.615Z,1008.50
2022-11-20T09:32:23.614Z,1008.48
2022-11-20T09:33:23.585Z,1008.51
2022-11-20T09:34:23.604Z,1008.51
2022-11-20T09:35:23.556Z,1008.54
2022-11-20T09:36:23.554Z,1008.53
2022-11-20T09:37:23.535Z,1008.54
2022-11-20T09:38:23.536Z,1008.59
2022-11-20T09:39:23.965Z,1008.57
2022-11-20T09:40:23.507Z,1008.53
2022-11-20T09:41:23.484Z,1008.50
2022-11-20T09:42:23.465Z,1008.51
2022-11-20T09:43:23.455Z,1008.50
2022-11-20T09:44:23.472Z,1008.47
2022-11-20T09:45:23.425Z,1008.43
2022-11-20T09:46:23.416Z,1008.47
2022-11-20T09:47:23.395Z,1008.46
2022-11-20T09:48:23.388Z,1008.41
2022-11-20T09:49:26.346Z,1008.45
2022-11-20T09:50:24.364Z,1008.45
2022-11-20T09:51:23.348Z,1008.52
2022-11-20T09:52:23.326Z,1008.48
2022-11-20T09:53:23.324Z,1008.48
2022-11-20T09:54:23.326Z,1008.49
2022-11-20T09:55:23.294Z,1008.52
2022-11-20T09:56:23.278Z,1008.52
2022-11-20T09:57:23.267Z,1008.52
2022-11-20T09:58:23.275Z,1008.58
2022-11-20T09:59:23.559Z,1008.58
2022-11-20T10:00:23.215Z,1008.59
2022-11-20T10:01:23.400Z,1008.59
2022-11-20T10:02:23.196Z,1008.59
2022-11-20T10:03:23.197Z,1008.58
2022-11-20T10:04:23.168Z,1008.53
2022-11-20T10:05:23.157Z,1008.57
2022-11-20T10:06:23.144Z,1008.58
2022-11-20T10:07:32.375Z,1008.58
2022-11-20T10:08:24.173Z,1008.51
2022-11-20T10:09:23.472Z,1008.52
2022-11-20T10:10:23.091Z,1008.48
2022-11-20T10:11:23.077Z,1008.44
2022-11-20T10:12:23.062Z,1008.44
2022-11-20T10:13:23.088Z,1008.41
2022-11-20T10:14:23.040Z,1008.43
2022-11-20T10:15:23.027Z,1008.41
2022-11-20T10:16:23.007Z,1008.40
2022-11-20T10:17:23.006Z,1008.43
2022-11-20T10:18:22.978Z,1008.39
2022-11-20T10:19:23.266Z,1008.38
2022-11-20T10:20:22.951Z,1008.38
2022-11-20T10:21:22.947Z,1008.38
2022-11-20T10:22:22.927Z,1008.33
2022-11-20T10:23:25.752Z,1008.27
2022-11-20T10:24:22.919Z,1008.30
2022-11-20T10:25:22.888Z,1008.26
2022-11-20T10:26:22.867Z,1008.25
2022-11-20T10:27:22.858Z,1008.24
2022-11-20T10:28:22.847Z,1008.18
2022-11-20T10:29:23.127Z,1008.13
2022-11-20T10:30:22.817Z,1008.08
2022-11-20T10:31:22.807Z,1008.09
2022-11-20T10:32:22.788Z,1008.09
2022-11-20T10:33:22.788Z,1008.07
2022-11-20T10:34:23.432Z,1008.10
2022-11-20T10:35:22.758Z,1008.06
2022-11-20T10:36:22.738Z,1008.03
2022-11-20T10:37:22.728Z,1008.02
2022-11-20T10:38:22.716Z,1008.01
2022-11-20T10:39:23.021Z,1007.97
2022-11-20T10:40:22.688Z,1007.98
2022-11-20T10:41:22.679Z,1008.05
2022-11-20T10:42:22.660Z,1008.03
2022-11-20T10:43:22.649Z,1008.01
2022-11-20T10:44:22.912Z,1007.99
2022-11-20T10:45:22.628Z,1007.98
2022-11-20T10:46:22.610Z,1007.93
2022-11-20T10:47:22.619Z,1007.97
2022-11-20T10:48:22.579Z,1007.95
2022-11-20T10:49:22.878Z,1007.88
2022-11-20T10:50:22.969Z,1007.91
2022-11-20T10:51:22.556Z,1007.88
2022-11-20T10:52:22.520Z,1007.88
2022-11-20T10:53:22.519Z,1007.90
2022-11-20T10:54:22.520Z,1007.88
2022-11-20T10:55:22.490Z,1007.86
2022-11-20T10:56:22.481Z,1007.83
2022-11-20T10:57:22.462Z,1007.79
2022-11-20T10:58:22.457Z,1007.75
2022-11-20T10:59:22.688Z,1007.71
2022-11-20T11:00:22.432Z,1007.75
2022-11-20T11:01:22.577Z,1007.68
2022-11-20T11:02:22.392Z,1007.68
2022-11-20T11:03:22.399Z,1007.68
2022-11-20T11:04:22.360Z,1007.67
2022-11-20T11:05:22.359Z,1007.65
2022-11-20T11:06:22.340Z,1007.66
2022-11-20T11:07:22.381Z,1007.63
2022-11-20T11:08:22.330Z,1007.64
2022-11-20T11:09:22.492Z,1007.62
2022-11-20T11:10:22.280Z,1007.59
2022-11-20T11:11:22.280Z,1007.56
2022-11-20T11:12:22.261Z,1007.52
2022-11-20T11:13:22.250Z,1007.49
2022-11-20T11:14:22.251Z,1007.48
2022-11-20T11:15:22.231Z,1007.47
2022-11-20T11:16:22.210Z,1007.45
2022-11-20T11:17:22.200Z,1007.42
2022-11-20T11:18:22.180Z,1007.42
2022-11-20T11:19:22.569Z,1007.39
2022-11-20T11:20:22.153Z,1007.40
2022-11-20T11:21:22.149Z,1007.39
2022-11-20T11:22:22.120Z,1007.35
2022-11-20T11:23:22.121Z,1007.32
2022-11-20T11:24:40.915Z,1007.32
2022-11-20T11:25:23.092Z,1007.23
2022-11-20T11:26:22.073Z,1007.27
2022-11-20T11:27:22.062Z,1007.24
2022-11-20T11:28:22.043Z,1007.22
2022-11-20T11:29:22.422Z,1007.21
2022-11-20T11:30:22.031Z,1007.19
2022-11-20T11:31:22.012Z,1007.18
2022-11-20T11:32:21.997Z,1007.17
2022-11-20T11:33:21.985Z,1007.17
2022-11-20T11:34:21.992Z,1007.15
2022-11-20T11:35:21.961Z,1007.14
2022-11-20T11:36:21.932Z,1007.12
2022-11-20T11:37:21.933Z,1007.08
2022-11-20T11:38:21.919Z,1007.05
2022-11-20T11:39:22.205Z,1007.04
2022-11-20T11:40:24.413Z,1007.00
2022-11-20T11:41:21.875Z,1007.05
2022-11-20T11:42:21.861Z,1007.02
2022-11-20T11:43:21.853Z,1007.01
2022-11-20T11:44:21.842Z,1006.95
2022-11-20T11:45:21.822Z,1006.97
2022-11-20T11:46:21.814Z,1006.93
2022-11-20T11:47:21.800Z,1006.95
2022-11-20T11:48:21.783Z,1006.92
2022-11-20T11:49:22.072Z,1006.87
2022-11-20T11:50:21.753Z,1006.90
2022-11-20T11:51:21.745Z,1006.87
2022-11-20T11:52:21.723Z,1006.87
2022-11-20T11:53:21.715Z,1006.77
2022-11-20T11:54:21.723Z,1006.73
2022-11-20T11:55:21.690Z,1006.65
2022-11-20T11:56:21.673Z,1006.61
2022-11-20T11:57:21.663Z,1006.60
2022-11-20T11:58:21.656Z,1006.62
2022-11-20T11:59:21.970Z,1006.57
2022-11-20T12:00:21.613Z,1006.56
2022-11-20T12:01:21.605Z,1006.56
2022-11-20T12:02:21.626Z,1006.61
2022-11-20T12:03:21.580Z,1006.58
2022-11-20T12:04:21.586Z,1006.54
2022-11-20T12:05:21.553Z,1006.56
2022-11-20T12:06:21.533Z,1006.50